Time;durP1;ratioP1;P1;durP2;ratioP2;P2;SDS_P1;SDS_P2;PMS_P1;PMS_P2;Temp;Humidity;BMP_temperature;BMP_pressure;BME280_temperature;BME280_humidity;BME280_pressure;Samples;Min_cycle;Max_cycle;Signal;HPM_P1;HPM_P2
2023/12/19 00:00:48;;;;;;;45.20;21.10;;;9.50;99.90;;;;;;5053042;28;20123;-86
2023/12/19 00:03:14;;;;;;;45.05;20.52;;;9.50;99.90;;;;;;5036345;28;20029;-86
2023/12/19 00:05:41;;;;;;;44.35;20.65;;;9.40;99.90;;;;;;5053325;28;20035;-87
2023/12/19 00:08:09;;;;;;;38.35;19.10;;;9.40;99.90;;;;;;5036743;28;20021;-86
2023/12/19 00:10:35;;;;;;;41.33;20.20;;;9.40;99.90;;;;;;5053201;28;20025;-87
2023/12/19 00:13:02;;;;;;;36.75;18.55;;;9.40;99.90;;;;;;5036126;28;20047;-88
2023/12/19 00:15:31;;;;;;;37.60;18.65;;;9.40;99.90;;;;;;5053260;28;20031;-88
2023/12/19 00:17:57;;;;;;;34.40;18.13;;;9.40;99.90;;;;;;5036631;28;20036;-87
2023/12/19 00:20:25;;;;;;;43.25;18.98;;;9.40;99.90;;;;;;5053081;28;20028;-87
2023/12/19 00:22:52;;;;;;;41.03;19.15;;;9.40;99.90;;;;;;5036921;28;20025;-88
2023/12/19 00:25:18;;;;;;;43.22;18.63;;;9.30;99.90;;;;;;5052834;28;20020;-87
2023/12/19 00:27:48;;;;;;;41.38;18.85;;;9.40;99.90;;;;;;5036674;28;20029;-88
2023/12/19 00:30:14;;;;;;;39.83;18.17;;;9.30;99.90;;;;;;5036653;28;20469;-88
2023/12/19 00:32:41;;;;;;;42.22;17.90;;;9.30;99.90;;;;;;5036495;28;20413;-87
2023/12/19 00:35:08;;;;;;;33.80;17.80;;;9.30;99.90;;;;;;5032835;28;20034;-87
2023/12/19 00:37:34;;;;;;;39.22;16.90;;;9.30;99.90;;;;;;5032908;28;20029;-87
2023/12/19 00:40:01;;;;;;;42.55;17.50;;;9.30;99.90;;;;;;5032964;28;20079;-88
2023/12/19 00:42:28;;;;;;;36.90;17.02;;;9.20;99.90;;;;;;5032931;28;20026;-89
2023/12/19 00:44:54;;;;;;;34.70;17.02;;;9.30;99.90;;;;;;5048973;28;20454;-89
2023/12/19 00:47:21;;;;;;;36.92;16.70;;;9.30;99.90;;;;;;5036375;28;20087;-89
2023/12/19 00:49:47;;;;;;;32.40;16.52;;;9.40;99.90;;;;;;5036380;28;20049;-89
2023/12/19 00:52:13;;;;;;;31.48;15.43;;;9.40;99.90;;;;;;5036133;28;20036;-88
2023/12/19 00:54:43;;;;;;;33.83;16.63;;;9.30;99.90;;;;;;5036308;28;20036;-88
2023/12/19 00:57:09;;;;;;;29.98;15.48;;;9.40;99.90;;;;;;5036216;28;20032;-88
2023/12/19 00:59:35;;;;;;;32.05;16.02;;;9.40;99.90;;;;;;5036330;28;20032;-88
2023/12/19 01:02:02;;;;;;;31.60;16.38;;;9.30;99.90;;;;;;5036085;28;20049;-88
2023/12/19 01:04:28;;;;;;;38.10;15.30;;;9.30;99.90;;;;;;5032672;28;20025;-88
2023/12/19 01:06:55;;;;;;;35.33;15.43;;;9.30;99.90;;;;;;5032834;28;20484;-89
2023/12/19 01:09:21;;;;;;;28.92;15.30;;;9.30;99.90;;;;;;5036036;28;20036;-88
2023/12/19 01:11:47;;;;;;;31.77;16.63;;;9.30;99.90;;;;;;5036750;28;20033;-89
2023/12/19 01:14:14;;;;;;;32.90;16.08;;;9.30;99.90;;;;;;5036724;28;20479;-90
2023/12/19 01:16:40;;;;;;;35.42;16.08;;;9.20;99.90;;;;;;5036572;28;20386;-89
2023/12/19 01:19:09;;;;;;;31.95;15.63;;;9.10;99.90;;;;;;5036680;28;20033;-88
2023/12/19 01:21:37;;;;;;;38.80;16.45;;;9.00;99.90;;;;;;5036557;28;20030;-88
2023/12/19 01:24:04;;;;;;;33.00;15.95;;;9.00;99.90;;;;;;5036241;28;20486;-89
2023/12/19 01:26:32;;;;;;;35.58;15.85;;;8.90;99.90;;;;;;5036479;28;20047;-88
2023/12/19 01:28:59;;;;;;;26.80;15.85;;;8.80;99.90;;;;;;5036319;28;20029;-89
2023/12/19 01:31:26;;;;;;;36.35;16.38;;;8.80;99.90;;;;;;5036255;28;20030;-89
2023/12/19 01:33:57;;;;;;;36.75;17.27;;;8.80;99.90;;;;;;5042335;28;20029;-88
2023/12/19 01:36:25;;;;;;;36.92;17.70;;;8.70;99.90;;;;;;5039658;28;20025;-88
2023/12/19 01:38:52;;;;;;;37.35;17.92;;;8.70;99.90;;;;;;5039794;28;20420;-89
2023/12/19 01:41:29;;;;;;;51.67;17.60;;;8.70;99.90;;;;;;5039652;28;20036;-89
2023/12/19 01:44:00;;;;;;;31.70;16.77;;;8.70;99.90;;;;;;5048243;28;20041;-89
2023/12/19 01:46:26;;;;;;;34.58;17.50;;;8.60;99.90;;;;;;5039425;28;20108;-89
2023/12/19 01:48:53;;;;;;;31.48;17.35;;;8.60;99.90;;;;;;5039317;28;20025;-88
2023/12/19 01:51:20;;;;;;;36.08;18.00;;;8.60;99.90;;;;;;5039507;28;20036;-89
2023/12/19 01:53:48;;;;;;;36.90;17.77;;;8.60;99.90;;;;;;5039358;28;20032;-89
2023/12/19 01:56:18;;;;;;;35.13;18.15;;;8.60;99.90;;;;;;5039364;28;20040;-89
2023/12/19 01:58:47;;;;;;;36.50;18.88;;;8.50;99.90;;;;;;5039157;28;20044;-90
2023/12/19 02:01:20;;;;;;;36.45;18.15;;;8.50;99.90;;;;;;5039052;28;20048;-89
2023/12/19 02:03:47;;;;;;;41.88;18.38;;;8.50;99.90;;;;;;5039375;28;20079;-89
2023/12/19 02:06:14;;;;;;;34.78;18.25;;;8.50;99.90;;;;;;5038844;28;20486;-89
2023/12/19 02:08:40;;;;;;;37.28;19.67;;;8.40;99.90;;;;;;5055597;28;20033;-88
2023/12/19 02:11:07;;;;;;;36.38;18.40;;;8.40;99.90;;;;;;5039760;28;20056;-88
2023/12/19 02:13:33;;;;;;;38.75;18.02;;;8.40;99.90;;;;;;5055427;28;20425;-89
2023/12/19 02:16:00;;;;;;;42.65;18.27;;;8.30;99.90;;;;;;5038926;28;20031;-89
2023/12/19 02:18:29;;;;;;;35.35;18.55;;;8.30;99.90;;;;;;5038732;28;20116;-88
2023/12/19 02:20:55;;;;;;;44.97;20.13;;;8.30;99.90;;;;;;5038224;28;20083;-88
2023/12/19 02:23:22;;;;;;;33.15;18.90;;;8.20;99.90;;;;;;5038759;28;20029;-89
2023/12/19 02:25:50;;;;;;;40.45;20.25;;;8.20;99.90;;;;;;5038573;28;20119;-89
2023/12/19 02:28:17;;;;;;;36.45;18.88;;;8.30;99.90;;;;;;5038617;28;20466;-89
2023/12/19 02:30:46;;;;;;;35.20;19.38;;;8.30;99.90;;;;;;5038468;28;20179;-89
2023/12/19 02:33:12;;;;;;;40.72;19.88;;;8.20;99.90;;;;;;5027682;28;20083;-88
2023/12/19 02:35:39;;;;;;;41.70;20.20;;;8.20;99.90;;;;;;5035213;28;20032;-88
2023/12/19 02:38:05;;;;;;;40.28;20.17;;;8.10;99.90;;;;;;5035180;28;20055;-87
2023/12/19 02:40:32;;;;;;;38.38;21.08;;;8.10;99.90;;;;;;5035113;28;20026;-89
2023/12/19 02:42:59;;;;;;;41.63;20.20;;;8.10;99.90;;;;;;5038288;28;20024;-89
2023/12/19 02:45:28;;;;;;;47.95;20.52;;;8.10;99.90;;;;;;5054702;28;20116;-88
2023/12/19 02:47:54;;;;;;;45.85;20.05;;;8.10;99.90;;;;;;5038194;28;20037;-89
2023/12/19 02:50:21;;;;;;;40.22;20.35;;;8.10;99.90;;;;;;5038248;28;20488;-88
2023/12/19 02:52:47;;;;;;;48.55;20.30;;;8.00;99.90;;;;;;5054611;28;20072;-89
2023/12/19 02:55:14;;;;;;;43.35;20.98;;;8.00;99.90;;;;;;5038118;28;20111;-89
2023/12/19 02:57:40;;;;;;;43.42;19.83;;;8.00;99.90;;;;;;5038289;28;20032;-88
2023/12/19 03:00:07;;;;;;;43.20;20.65;;;7.90;99.90;;;;;;5038135;28;20017;-88
2023/12/19 03:02:33;;;;;;;42.70;20.00;;;7.90;99.90;;;;;;5037625;28;20134;-89
2023/12/19 03:05:00;;;;;;;45.45;20.08;;;7.90;99.90;;;;;;5037873;28;20056;-88
2023/12/19 03:07:26;;;;;;;41.08;19.52;;;7.90;99.90;;;;;;5037909;28;20029;-89
2023/12/19 03:09:52;;;;;;;46.10;20.80;;;7.90;99.90;;;;;;5037894;28;20049;-89
2023/12/19 03:12:19;;;;;;;40.35;19.98;;;7.90;99.90;;;;;;5037544;28;20282;-88
2023/12/19 03:14:45;;;;;;;43.10;20.58;;;7.90;99.90;;;;;;5030741;28;20037;-89
2023/12/19 03:17:12;;;;;;;46.58;20.35;;;7.90;99.90;;;;;;5017945;28;20080;-89
2023/12/19 03:19:38;;;;;;;45.72;20.75;;;8.00;99.90;;;;;;5033359;28;20036;-89
2023/12/19 03:22:05;;;;;;;38.17;18.58;;;8.00;99.90;;;;;;5054120;28;20059;-89
2023/12/19 03:24:31;;;;;;;39.25;20.17;;;8.00;99.90;;;;;;5037484;28;20021;-89
2023/12/19 03:26:59;;;;;;;41.80;20.35;;;8.00;99.90;;;;;;5053947;28;20039;-89
2023/12/19 03:29:25;;;;;;;44.10;20.58;;;7.90;99.90;;;;;;5037491;28;20029;-89
2023/12/19 03:31:51;;;;;;;48.35;20.80;;;7.90;99.90;;;;;;5052549;28;20036;-89
2023/12/19 03:34:18;;;;;;;43.80;20.15;;;7.90;99.90;;;;;;5017496;28;20026;-89
2023/12/19 03:36:45;;;;;;;44.65;20.38;;;7.90;99.90;;;;;;5017480;28;20030;-88
2023/12/19 03:39:11;;;;;;;44.42;20.45;;;7.90;99.90;;;;;;5017463;28;20068;-88
2023/12/19 03:41:37;;;;;;;51.65;22.30;;;7.90;99.90;;;;;;5017999;28;20022;-89
2023/12/19 03:44:04;;;;;;;44.25;21.38;;;7.90;99.90;;;;;;5036680;28;20021;-88
2023/12/19 03:46:30;;;;;;;45.17;21.27;;;7.90;99.90;;;;;;5037234;28;20025;-88
2023/12/19 03:48:57;;;;;;;49.33;21.33;;;7.90;99.90;;;;;;5037593;28;20033;-88
2023/12/19 03:51:23;;;;;;;46.92;20.70;;;7.90;99.90;;;;;;5036801;28;20581;-89
2023/12/19 03:53:49;;;;;;;46.42;22.02;;;7.90;99.90;;;;;;5036919;28;20052;-88
2023/12/19 03:56:15;;;;;;;54.90;20.95;;;7.90;99.90;;;;;;5037013;28;20120;-89
2023/12/19 03:58:42;;;;;;;47.28;22.58;;;7.90;99.90;;;;;;5036920;28;20530;-90
2023/12/19 04:01:10;;;;;;;48.40;21.40;;;7.90;99.90;;;;;;5036835;28;20436;-88
2023/12/19 04:03:37;;;;;;;53.33;22.30;;;7.90;99.90;;;;;;5037295;28;20033;-87
2023/12/19 04:06:05;;;;;;;51.60;21.10;;;8.00;99.90;;;;;;5036637;28;20021;-87
2023/12/19 04:08:31;;;;;;;54.13;22.63;;;8.00;99.90;;;;;;5036388;28;20033;-87
2023/12/19 04:10:58;;;;;;;51.97;21.77;;;8.00;99.90;;;;;;5036439;28;20478;-88
2023/12/19 04:13:24;;;;;;;49.20;23.30;;;8.00;99.90;;;;;;5036390;28;20029;-87
2023/12/19 04:15:50;;;;;;;50.38;21.75;;;8.00;99.90;;;;;;5036297;28;20025;-87
2023/12/19 04:18:17;;;;;;;46.47;22.13;;;8.00;99.90;;;;;;5036357;28;20481;-87
2023/12/19 04:20:44;;;;;;;47.00;21.33;;;8.00;99.90;;;;;;5036469;28;20029;-87
2023/12/19 04:23:11;;;;;;;47.05;21.90;;;8.00;99.90;;;;;;5036590;28;20025;-88
2023/12/19 04:25:38;;;;;;;47.75;22.77;;;8.00;99.90;;;;;;5053222;28;20025;-90
2023/12/19 04:28:04;;;;;;;48.53;21.63;;;8.00;99.90;;;;;;5036545;28;20029;-89
2023/12/19 04:30:34;;;;;;;52.13;23.10;;;8.00;99.90;;;;;;5052982;28;20031;-89
2023/12/19 04:33:00;;;;;;;48.67;23.85;;;8.10;99.90;;;;;;5036457;28;20048;-87
2023/12/19 04:35:26;;;;;;;56.92;22.75;;;8.00;99.90;;;;;;5052933;28;20367;-88
2023/12/19 04:37:53;;;;;;;57.03;24.48;;;8.00;99.90;;;;;;5036134;28;20029;-88
2023/12/19 04:40:19;;;;;;;52.88;24.48;;;8.00;99.90;;;;;;5036323;28;20029;-90
2023/12/19 04:42:46;;;;;;;49.30;23.88;;;8.00;99.90;;;;;;5036649;28;20112;-88
2023/12/19 04:45:13;;;;;;;58.45;24.65;;;8.00;99.90;;;;;;5054936;28;20087;-94
2023/12/19 04:47:40;;;;;;;51.80;24.27;;;8.00;99.90;;;;;;5020932;28;20129;-88
2023/12/19 04:50:08;;;;;;;54.50;23.63;;;8.00;99.90;;;;;;5035905;28;20033;-87
2023/12/19 04:52:34;;;;;;;68.97;26.02;;;8.00;99.90;;;;;;5036097;28;20037;-89
2023/12/19 04:55:01;;;;;;;59.55;25.00;;;8.00;99.90;;;;;;5052419;28;20021;-85
2023/12/19 04:57:28;;;;;;;59.13;24.02;;;8.00;99.90;;;;;;5035853;28;20029;-86
2023/12/19 04:59:54;;;;;;;60.38;24.83;;;8.00;99.90;;;;;;5052478;28;20080;-88
2023/12/19 05:02:20;;;;;;;58.13;24.10;;;8.10;99.90;;;;;;5035382;28;20498;-89
2023/12/19 05:04:47;;;;;;;51.60;24.05;;;8.10;99.90;;;;;;5053449;28;20473;-88
2023/12/19 05:07:13;;;;;;;63.42;25.77;;;8.00;99.90;;;;;;5037064;28;20075;-87
2023/12/19 05:09:40;;;;;;;58.63;24.63;;;8.00;99.90;;;;;;5052538;28;20051;-89
2023/12/19 05:12:06;;;;;;;51.30;24.63;;;8.10;99.90;;;;;;5032906;28;20039;-89
2023/12/19 05:14:32;;;;;;;53.67;23.08;;;8.10;99.90;;;;;;5052054;28;20025;-88
2023/12/19 05:17:01;;;;;;;51.47;22.85;;;8.10;99.90;;;;;;5036124;28;20036;-89
2023/12/19 05:19:28;;;;;;;57.22;25.50;;;8.10;99.90;;;;;;5032675;28;20025;-87
2023/12/19 05:21:54;;;;;;;56.67;25.00;;;8.10;99.90;;;;;;5045660;28;20067;-88
2023/12/19 05:24:20;;;;;;;66.93;25.88;;;8.10;99.90;;;;;;5032699;28;20021;-89
2023/12/19 05:26:47;;;;;;;61.40;25.73;;;8.00;99.90;;;;;;5016340;28;20029;-89
2023/12/19 05:29:13;;;;;;;58.47;25.65;;;8.00;99.90;;;;;;5036691;28;20478;-88
2023/12/19 05:31:40;;;;;;;71.50;26.52;;;8.00;99.90;;;;;;5035788;28;20045;-88
2023/12/19 05:34:06;;;;;;;67.38;25.35;;;8.00;99.90;;;;;;5035957;28;20108;-88
2023/12/19 05:36:34;;;;;;;63.97;26.08;;;8.00;99.90;;;;;;5035821;28;20025;-88
2023/12/19 05:39:02;;;;;;;74.68;25.48;;;8.00;99.90;;;;;;5035777;28;20048;-89
2023/12/19 05:41:29;;;;;;;67.30;25.00;;;8.00;99.90;;;;;;5022040;28;20029;-88
2023/12/19 05:43:59;;;;;;;60.97;25.10;;;8.00;99.90;;;;;;5016027;28;20030;-88
2023/12/19 05:46:27;;;;;;;67.40;25.45;;;8.00;99.90;;;;;;5016224;28;20526;-87
2023/12/19 05:48:56;;;;;;;63.92;26.25;;;8.10;99.90;;;;;;5017515;28;20025;-89
2023/12/19 05:51:24;;;;;;;64.30;24.98;;;8.10;99.90;;;;;;5031383;28;20486;-89
2023/12/19 05:53:50;;;;;;;70.47;27.73;;;8.10;99.90;;;;;;5036130;28;20041;-89
2023/12/19 05:56:16;;;;;;;63.97;26.08;;;8.20;99.90;;;;;;5054985;28;20036;-88
2023/12/19 05:58:44;;;;;;;62.97;25.23;;;8.20;99.90;;;;;;5039146;28;20029;-88
2023/12/19 06:01:11;;;;;;;70.63;25.88;;;8.20;99.90;;;;;;5055331;28;20045;-90
2023/12/19 06:03:37;;;;;;;64.07;25.63;;;8.20;99.90;;;;;;5039236;28;20037;-89
2023/12/19 06:06:04;;;;;;;59.08;25.80;;;8.20;99.90;;;;;;5055308;28;20067;-89
2023/12/19 06:08:30;;;;;;;73.97;27.98;;;8.20;99.90;;;;;;5038746;28;20534;-89
2023/12/19 06:10:56;;;;;;;64.85;27.23;;;8.20;99.90;;;;;;5055461;28;20033;-89
2023/12/19 06:13:23;;;;;;;62.10;25.92;;;8.30;99.90;;;;;;5039108;28;20032;-88
2023/12/19 06:15:49;;;;;;;65.80;26.52;;;8.30;99.90;;;;;;5055497;28;20056;-88
2023/12/19 06:18:17;;;;;;;60.17;26.02;;;8.30;99.90;;;;;;5038554;28;20029;-88
2023/12/19 06:20:44;;;;;;;64.10;26.40;;;8.40;99.90;;;;;;5055304;28;20032;-88
2023/12/19 06:23:11;;;;;;;62.50;26.33;;;8.30;99.90;;;;;;5038716;28;20025;-89
2023/12/19 06:25:38;;;;;;;57.88;26.45;;;8.40;99.90;;;;;;5055400;28;20039;-90
2023/12/19 06:28:05;;;;;;;69.45;26.23;;;8.50;99.90;;;;;;5038737;28;20478;-89
2023/12/19 06:30:31;;;;;;;67.40;25.80;;;8.50;99.90;;;;;;5038248;28;20055;-89
2023/12/19 06:32:58;;;;;;;60.35;26.52;;;8.60;99.90;;;;;;5038726;28;20402;-89
2023/12/19 06:35:29;;;;;;;61.72;25.98;;;8.60;99.90;;;;;;5054985;28;20129;-88
2023/12/19 06:37:55;;;;;;;69.82;27.95;;;8.60;99.90;;;;;;5037059;28;20037;-87
2023/12/19 06:40:23;;;;;;;79.57;29.20;;;8.70;99.90;;;;;;5018668;28;20021;-88
2023/12/19 06:42:50;;;;;;;66.38;28.10;;;8.70;99.90;;;;;;5018661;28;20044;-88
2023/12/19 06:45:18;;;;;;;62.25;26.48;;;8.70;99.90;;;;;;5018623;28;20139;-89
2023/12/19 06:47:48;;;;;;;61.10;25.77;;;8.70;99.90;;;;;;5038252;28;20032;-89
2023/12/19 06:50:16;;;;;;;65.47;26.73;;;8.90;99.90;;;;;;5038208;28;20048;-89
2023/12/19 06:52:42;;;;;;;60.15;24.67;;;8.90;99.90;;;;;;5054919;28;20037;-89
2023/12/19 06:55:12;;;;;;;53.00;24.00;;;9.00;99.90;;;;;;5038319;28;20111;-90
2023/12/19 06:57:38;;;;;;;51.30;23.00;;;9.10;99.90;;;;;;5019483;28;20034;-89
2023/12/19 07:00:06;;;;;;;50.53;23.42;;;9.20;99.90;;;;;;5018314;28;20029;-88
2023/12/19 07:02:36;;;;;;;53.60;22.17;;;9.30;99.90;;;;;;5017636;28;20052;-84
2023/12/19 07:05:04;;;;;;;45.90;21.52;;;9.30;99.90;;;;;;5018097;28;20053;-89
2023/12/19 07:07:31;;;;;;;49.92;22.17;;;9.40;99.90;;;;;;5018493;28;20026;-88
2023/12/19 07:10:01;;;;;;;49.30;22.33;;;9.60;99.90;;;;;;5018068;28;20033;-88
2023/12/19 07:12:27;;;;;;;44.67;21.10;;;9.70;99.90;;;;;;5018150;28;20034;-88
2023/12/19 07:14:53;;;;;;;46.25;18.63;;;9.90;99.90;;;;;;5018304;28;20026;-88
2023/12/19 07:17:20;;;;;;;45.85;18.23;;;10.00;99.90;;;;;;5017905;28;20057;-88
2023/12/19 07:19:47;;;;;;;36.53;17.20;;;10.10;99.90;;;;;;5017951;28;20080;-89
2023/12/19 07:22:13;;;;;;;36.65;16.80;;;10.20;99.90;;;;;;5029776;28;20029;-89
2023/12/19 07:24:40;;;;;;;31.50;17.55;;;10.40;99.90;;;;;;5037393;28;20084;-89
2023/12/19 07:27:07;;;;;;;32.58;17.83;;;10.70;99.90;;;;;;5037863;28;20029;-89
2023/12/19 07:29:38;;;;;;;33.85;18.90;;;10.80;99.90;;;;;;5037302;28;20120;-84
2023/12/19 07:32:05;;;;;;;31.92;18.17;;;10.80;99.90;;;;;;5016909;28;20037;-85
2023/12/19 07:34:31;;;;;;;36.85;19.17;;;10.80;99.90;;;;;;5050110;28;20025;-86
2023/12/19 07:36:58;;;;;;;37.17;20.27;;;11.10;99.90;;;;;;5017445;28;20033;-90
2023/12/19 07:39:24;;;;;;;45.00;23.85;;;11.10;99.90;;;;;;5033947;28;20392;-89
2023/12/19 07:41:50;;;;;;;41.67;23.70;;;11.30;99.90;;;;;;5037018;28;20025;-90
2023/12/19 07:44:17;;;;;;;48.42;26.20;;;11.30;99.90;;;;;;5037243;28;20024;-91
2023/12/19 07:46:44;;;;;;;44.05;25.58;;;11.30;99.90;;;;;;5037235;28;20498;-90
2023/12/19 07:49:11;;;;;;;42.17;24.45;;;11.40;99.90;;;;;;5037166;28;20036;-90
2023/12/19 07:51:37;;;;;;;34.05;23.13;;;11.50;99.90;;;;;;5037044;28;20120;-90
2023/12/19 07:54:04;;;;;;;29.95;21.02;;;11.50;99.90;;;;;;5037315;28;20390;-90
2023/12/19 07:56:31;;;;;;;30.70;21.73;;;11.50;99.90;;;;;;5037100;28;20046;-89
2023/12/19 07:58:58;;;;;;;36.17;22.15;;;11.70;99.90;;;;;;5036603;28;20021;-90
2023/12/19 08:01:25;;;;;;;34.13;21.42;;;11.90;99.90;;;;;;5053220;28;20112;-89
2023/12/19 08:03:51;;;;;;;38.67;21.48;;;12.00;99.90;;;;;;5036726;28;20041;-90
2023/12/19 08:06:19;;;;;;;31.30;22.45;;;12.00;99.90;;;;;;5036900;28;20033;-90
2023/12/19 08:08:49;;;;;;;31.88;21.02;;;12.10;99.90;;;;;;5036770;28;20021;-90
2023/12/19 08:11:20;;;;;;;31.55;20.10;;;12.10;99.90;;;;;;5053426;28;20084;-90
2023/12/19 08:13:50;;;;;;;31.17;19.70;;;12.00;99.90;;;;;;5035439;28;20025;-90
2023/12/19 08:16:17;;;;;;;27.33;19.77;;;11.90;99.90;;;;;;5036643;28;20035;-89
2023/12/19 08:18:43;;;;;;;32.80;20.42;;;12.00;99.90;;;;;;5052633;28;20029;-89
2023/12/19 08:21:10;;;;;;;28.55;20.17;;;12.00;99.90;;;;;;5036524;28;20107;-91
2023/12/19 08:23:37;;;;;;;34.42;20.42;;;12.10;99.90;;;;;;5052944;28;20041;-90
2023/12/19 08:26:07;;;;;;;37.90;20.75;;;12.30;99.90;;;;;;5036812;28;20062;-90
2023/12/19 08:28:34;;;;;;;36.65;20.58;;;12.30;99.90;;;;;;5036325;28;20039;-90
2023/12/19 08:31:03;;;;;;;31.83;20.65;;;12.50;99.90;;;;;;5036551;28;20436;-90
2023/12/19 08:33:30;;;;;;;30.02;19.83;;;12.60;99.90;;;;;;5053066;28;20095;-89
2023/12/19 08:35:56;;;;;;;25.50;19.77;;;12.60;99.90;;;;;;5036548;28;20050;-90
2023/12/19 08:38:23;;;;;;;29.73;19.65;;;12.60;99.90;;;;;;5052988;28;20036;-90
2023/12/19 08:40:49;;;;;;;27.48;19.13;;;12.60;99.90;;;;;;5036416;28;20126;-90
2023/12/19 08:43:19;;;;;;;26.23;19.23;;;12.70;99.90;;;;;;5052904;28;20033;-90
2023/12/19 08:45:47;;;;;;;26.05;18.67;;;12.80;99.90;;;;;;5052868;28;20021;-90
2023/12/19 08:48:14;;;;;;;30.30;20.40;;;12.90;99.90;;;;;;5036224;28;20552;-90
2023/12/19 08:50:40;;;;;;;34.40;21.40;;;13.00;99.90;;;;;;5052990;28;20490;-90
2023/12/19 08:53:07;;;;;;;30.45;20.65;;;13.00;99.90;;;;;;5036374;28;20028;-90
2023/12/19 08:55:34;;;;;;;25.20;20.60;;;13.10;99.90;;;;;;5052948;28;20079;-90
2023/12/19 08:58:00;;;;;;;28.27;19.48;;;13.20;99.90;;;;;;5040101;28;20029;-89
2023/12/19 09:00:30;;;;;;;33.75;19.60;;;13.10;99.90;;;;;;5054090;28;20060;-90
2023/12/19 09:02:57;;;;;;;27.80;20.23;;;13.20;99.90;;;;;;5053598;28;20041;-90
2023/12/19 09:05:26;;;;;;;38.28;21.60;;;13.30;99.90;;;;;;5036065;28;20079;-90
2023/12/19 09:07:53;;;;;;;30.23;20.45;;;13.50;99.90;;;;;;5036695;28;20059;-90
2023/12/19 09:10:20;;;;;;;27.67;20.40;;;13.60;99.90;;;;;;5035954;28;20421;-90
2023/12/19 09:12:46;;;;;;;29.35;20.63;;;13.70;99.90;;;;;;5052406;28;20033;-91
2023/12/19 09:15:12;;;;;;;32.53;21.40;;;13.70;99.90;;;;;;5035998;28;20044;-90
2023/12/19 09:17:39;;;;;;;26.85;19.85;;;13.80;99.90;;;;;;5036079;28;20037;-89
2023/12/19 09:20:07;;;;;;;29.90;20.60;;;13.80;99.90;;;;;;5035846;28;20023;-87
2023/12/19 09:22:37;;;;;;;22.45;19.25;;;13.90;99.90;;;;;;5052068;28;20447;-87
2023/12/19 09:25:13;;;;;;;34.50;19.70;;;14.00;99.90;;;;;;5035250;28;20028;-86
2023/12/19 09:27:42;;;;;;;31.48;20.77;;;14.10;99.90;;;;;;5035688;28;20062;-86
2023/12/19 09:30:17;;;;;;;26.30;19.42;;;14.20;99.90;;;;;;5053408;28;20021;-85
2023/12/19 09:32:47;;;;;;;32.38;20.25;;;14.30;99.90;;;;;;5055877;28;20126;-87
2023/12/19 09:35:13;;;;;;;25.17;18.80;;;14.50;99.90;;;;;;5039327;28;20048;-87
2023/12/19 09:37:40;;;;;;;27.58;20.20;;;14.60;99.90;;;;;;5039229;28;20039;-87
2023/12/19 09:40:13;;;;;;;25.38;20.10;;;14.60;99.90;;;;;;5039235;28;20049;-87
2023/12/19 09:42:40;;;;;;;28.33;19.75;;;14.60;99.90;;;;;;5031423;28;20041;-92
2023/12/19 09:45:07;;;;;;;29.60;20.92;;;14.70;99.90;;;;;;5019672;28;20364;-93
2023/12/19 09:47:38;;;;;;;27.08;20.38;;;14.80;99.90;;;;;;5019785;28;20029;-84
2023/12/19 09:50:11;;;;;;;28.13;20.83;;;14.90;99.90;;;;;;5017028;28;20039;-83
2023/12/19 09:52:38;;;;;;;19.95;17.85;;;15.00;99.90;;;;;;5024930;28;20040;-84
2023/12/19 09:55:05;;;;;;;20.13;17.73;;;15.00;99.90;;;;;;5026342;28;20017;-83
2023/12/19 09:57:36;;;;;;;20.80;17.23;;;15.10;99.90;;;;;;5055018;28;20082;-83
2023/12/19 10:00:11;;;;;;;25.98;18.60;;;15.20;99.90;;;;;;5054479;28;20059;-84
2023/12/19 10:02:38;;;;;;;21.90;17.27;;;15.20;99.90;;;;;;5055726;28;20033;-84
2023/12/19 10:05:06;;;;;;;20.90;17.33;;;15.10;99.90;;;;;;5034880;28;20056;-84
2023/12/19 10:07:33;;;;;;;27.75;16.77;;;15.00;99.90;;;;;;5018350;28;20556;-84
2023/12/19 10:10:00;;;;;;;18.63;16.33;;;15.10;99.90;;;;;;5034801;28;20394;-84
2023/12/19 10:12:27;;;;;;;18.88;16.88;;;15.30;99.90;;;;;;5019803;28;20033;-84
2023/12/19 10:15:13;;;;;;;18.27;16.65;;;15.40;99.90;;;;;;5047731;28;20482;-84
2023/12/19 10:17:40;;;;;;;23.73;17.15;;;15.50;99.90;;;;;;5018288;28;20068;-84
2023/12/19 10:20:11;;;;;;;21.95;16.80;;;15.60;99.90;;;;;;5034644;28;20064;-84
2023/12/19 10:22:38;;;;;;;17.73;15.90;;;15.60;99.90;;;;;;5027037;28;20025;-84
2023/12/19 10:25:05;;;;;;;18.17;16.40;;;15.60;99.90;;;;;;5037862;28;20066;-84
2023/12/19 10:27:31;;;;;;;16.95;15.35;;;15.60;99.90;;;;;;5054423;28;20025;-84
2023/12/19 10:30:20;;;;;;;19.75;15.70;;;15.50;99.90;;;;;;5054171;28;20029;-84
2023/12/19 10:32:47;;;;;;;20.75;18.52;;;15.70;99.90;;;;;;5055500;28;20037;-84
2023/12/19 10:35:13;;;;;;;20.65;16.65;;;15.90;99.90;;;;;;5037542;28;20025;-84
2023/12/19 10:37:40;;;;;;;19.63;17.58;;;15.70;99.90;;;;;;5055336;28;20025;-84
2023/12/19 10:40:14;;;;;;;24.50;16.70;;;15.70;99.90;;;;;;5056276;28;20101;-84
2023/12/19 10:42:53;;;;;;;18.00;16.30;;;15.60;99.90;;;;;;5054348;28;20389;-84
2023/12/19 10:45:21;;;;;;;24.58;15.52;;;15.50;99.90;;;;;;5035691;28;20119;-84
2023/12/19 10:47:48;;;;;;;23.15;16.00;;;15.40;99.90;;;;;;5034159;28;20032;-84
2023/12/19 10:50:15;;;;;;;17.50;15.70;;;15.30;99.90;;;;;;5025660;28;20026;-84
2023/12/19 10:52:44;;;;;;;17.42;15.65;;;15.10;99.90;;;;;;5050598;28;20083;-84
2023/12/19 10:55:17;;;;;;;17.13;15.18;;;15.20;99.90;;;;;;5033895;28;20034;-84
2023/12/19 10:57:48;;;;;;;17.13;14.82;;;15.30;99.90;;;;;;5050500;28;20042;-84
2023/12/19 11:00:22;;;;;;;16.27;14.88;;;15.30;99.90;;;;;;5053516;28;20064;-84
2023/12/19 11:03:34;;;;;;;16.35;14.85;;;15.40;99.90;;;;;;5036867;28;20052;-85
2023/12/19 11:06:08;;;;;;;16.30;14.90;;;15.50;99.90;;;;;;5050831;28;20044;-84
2023/12/19 11:08:39;;;;;;;19.27;15.13;;;15.30;99.90;;;;;;5037208;28;20036;-84
2023/12/19 11:11:25;;;;;;;16.65;15.02;;;15.40;99.90;;;;;;5053240;28;20478;-84
2023/12/19 11:13:53;;;;;;;17.70;14.82;;;15.30;99.90;;;;;;5033582;28;20045;-84
2023/12/19 11:16:46;;;;;;;16.67;15.10;;;15.30;99.90;;;;;;5033547;28;20032;-85
2023/12/19 11:19:34;;;;;;;16.85;15.10;;;15.30;99.90;;;;;;5033623;28;20474;-84
2023/12/19 11:22:14;;;;;;;18.25;16.13;;;15.40;99.90;;;;;;5052969;28;20037;-85
2023/12/19 11:24:55;;;;;;;18.45;16.35;;;15.60;99.90;;;;;;5054592;28;20040;-84
2023/12/19 11:27:34;;;;;;;18.38;16.25;;;15.70;99.90;;;;;;5036617;28;20029;-84
2023/12/19 11:30:01;;;;;;;19.75;16.13;;;16.00;99.90;;;;;;5053100;28;20394;-84
2023/12/19 11:32:27;;;;;;;18.92;17.17;;;16.30;99.90;;;;;;5054664;28;20064;-84
2023/12/19 11:35:12;;;;;;;19.48;17.45;;;16.20;99.90;;;;;;5036200;28;20047;-84
2023/12/19 11:37:43;;;;;;;19.95;15.82;;;16.00;99.90;;;;;;5033026;28;20383;-84
2023/12/19 11:40:37;;;;;;;20.17;15.88;;;15.90;99.90;;;;;;5033101;28;20048;-84
2023/12/19 11:43:04;;;;;;;17.17;15.52;;;15.70;99.90;;;;;;5035912;28;20033;-84
2023/12/19 11:45:34;;;;;;;17.33;15.60;;;15.40;99.90;;;;;;5053295;28;20024;-84
2023/12/19 11:48:01;;;;;;;17.42;14.77;;;15.30;99.90;;;;;;5052817;28;20060;-84
2023/12/19 11:50:40;;;;;;;16.88;15.20;;;15.20;99.90;;;;;;5035723;28;20078;-84
2023/12/19 11:53:09;;;;;;;17.70;14.98;;;15.50;99.90;;;;;;5035269;28;20555;-84
2023/12/19 11:55:36;;;;;;;21.42;16.20;;;15.60;99.90;;;;;;5052180;28;20017;-84
2023/12/19 11:58:15;;;;;;;22.25;16.92;;;15.90;99.90;;;;;;5036074;28;20086;-84
2023/12/19 12:00:42;;;;;;;17.45;15.82;;;16.10;99.90;;;;;;5052037;28;20029;-84
2023/12/19 12:03:10;;;;;;;17.80;16.10;;;16.10;99.90;;;;;;5033621;28;20570;-84
2023/12/19 12:05:37;;;;;;;17.63;16.02;;;15.90;99.90;;;;;;5019373;28;20367;-84
2023/12/19 12:08:04;;;;;;;16.75;15.25;;;15.50;99.90;;;;;;5048763;28;20057;-84
2023/12/19 12:10:32;;;;;;;16.75;15.35;;;15.20;99.90;;;;;;5050479;28;20025;-84
2023/12/19 12:13:01;;;;;;;17.40;15.43;;;15.20;99.90;;;;;;5035862;28;20029;-85
2023/12/19 12:15:28;;;;;;;17.42;15.57;;;15.20;99.90;;;;;;5036234;28;20083;-84
2023/12/19 12:18:07;;;;;;;17.85;16.23;;;15.50;99.90;;;;;;5035860;28;20482;-84
2023/12/19 12:20:34;;;;;;;19.13;15.85;;;15.70;99.90;;;;;;5037863;28;20433;-84
2023/12/19 12:23:01;;;;;;;19.40;17.52;;;15.90;99.90;;;;;;5052549;28;20028;-84
2023/12/19 12:25:28;;;;;;;17.83;15.98;;;16.00;99.90;;;;;;5035936;28;20083;-84
2023/12/19 12:28:14;;;;;;;18.38;16.52;;;15.90;99.90;;;;;;5035770;28;20021;-84
2023/12/19 12:30:41;;;;;;;17.13;15.75;;;15.60;99.90;;;;;;5048238;28;20060;-84
2023/12/19 12:33:08;;;;;;;17.75;16.05;;;15.40;99.90;;;;;;5035486;28;20060;-83
2023/12/19 12:35:38;;;;;;;16.70;15.00;;;15.10;99.90;;;;;;5052217;28;20028;-84
2023/12/19 12:38:17;;;;;;;20.65;15.40;;;14.80;99.90;;;;;;5035712;28;20080;-90